Estación municipal de Roda de Ter (Osona, Plana de Vic)

Consulta los datos en tiempo real de la estación municipal de Roda de Ter





Hora UTC 04:20
Temperatura 8.6 ºC
Humedad 100.0 %
Pluja 0.0 mm
Velocidad viento 2.8 km/h
Dirección viento WSW

Webcam

Datos diarios 2026-05-06



Hora UTC (invierno +1h; verano +2h)
Temperatura (ºC) Humedad (%) Velocidad viento (km/h) Precipitación (mm)
Hora UTC Aire Humedad Vel. Dir. Vel. Max Dir. Intent. máx 5 min.
00:05 9.2 100.0 0.0 NNE 0.0 N 0.0
00:10 9.2 100.0 0.0 NNE 0.0 N 0.0
00:15 9.2 100.0 0.0 N 1.1 N 0.0
00:20 9.2 100.0 0.3 N 2.5 N 0.0
00:25 9.2 100.0 2.6 N 3.5 N 0.0
00:30 9.2 100.0 1.7 N 3.2 N 0.0
00:35 9.2 100.0 0.0 NNE 0.0 N 0.0
00:40 9.2 100.0 0.0 NNE 0.0 N 0.0
00:45 9.3 100.0 1.2 NNW 4.2 NNW 0.0
00:50 9.3 100.0 1.4 NNW 3.2 NNW 0.0
00:55 9.3 100.0 0.6 NNW 2.1 NNW 0.0
01:00 9.3 100.0 4.3 WNW 7.1 WNW 0.0
01:05 9.3 100.0 4.1 WNW 6.7 WNW 0.0
01:10 9.3 100.0 0.1 WNW 1.4 WNW 0.0
01:15 9.3 100.0 0.5 WNW 3.9 NW 0.0
01:20 9.2 100.0 1.4 NW 3.2 WNW 0.0
01:25 9.2 100.0 0.3 NW 1.8 NW 0.0
01:30 9.2 100.0 0.2 NW 2.5 NW 0.0
01:35 9.1 100.0 1.2 NW 3.9 NW 0.0
01:40 9.0 100.0 1.5 W 5.6 W 0.0
01:45 9.1 100.0 0.1 W 1.4 W 0.0
01:50 9.1 100.0 0.5 W 2.5 W 0.0
01:55 9.1 100.0 0.8 W 1.8 W 0.0
02:00 9.1 100.0 1.3 WSW 3.5 S 0.0
02:05 9.2 100.0 3.3 S 6.4 SSE 0.0
02:10 9.1 100.0 1.6 S 5.3 S 0.0
02:15 9.0 100.0 0.1 S 1.4 S 0.0
02:20 9.0 100.0 0.2 S 2.1 S 0.0
02:25 9.1 100.0 3.0 WSW 7.4 WSW 0.0
02:30 9.1 100.0 3.0 W 5.6 W 0.0
02:35 9.2 100.0 5.6 W 7.8 W 0.0
02:40 9.1 100.0 3.8 SW 8.5 SW 0.0
02:45 9.0 100.0 3.3 WSW 6.4 WSW 0.0
02:50 9.0 100.0 3.7 WSW 5.3 WSW 0.0
02:55 9.0 100.0 5.7 S 8.5 S 0.0
03:00 8.9 100.0 2.6 S 7.4 S 0.0
03:05 8.8 100.0 0.3 S 5.3 S 0.0
03:10 8.8 100.0 3.0 SSW 5.6 SSW 0.0
03:15 8.9 100.0 0.6 S 3.5 S 0.0
03:20 8.8 100.0 0.8 S 3.2 S 0.0
03:25 8.8 100.0 0.0 NNE 0.0 S 0.0
03:30 8.8 100.0 2.7 S 5.6 SSW 0.0
03:35 8.7 100.0 2.7 SSW 6.4 SSW 0.0
03:40 8.6 100.0 1.7 SSW 3.9 SSW 0.0
03:45 8.6 100.0 3.2 SSW 6.7 SSW 0.0
03:50 8.5 100.0 0.7 SW 3.5 SW 0.0
03:55 8.6 100.0 0.0 NNE 0.0 SW 0.0
04:00 8.6 100.0 0.1 SSW 3.5 SSW 0.0
04:05 8.6 100.0 3.2 SSW 5.3 SSW 0.0
04:10 8.6 100.0 3.6 SW 5.6 SW 0.0
04:15 8.6 100.0 4.1 WSW 7.1 WSW 0.0
04:20 8.6 100.0 2.8 WSW 4.9 WSW 0.0
Máxima 9.3 100.0 5.7 S 8.5 S 0.0
Mínima 8.5 100.0
Total 0.0